Hauptseite
METAR-TAF:

METAR-TAF

Flughäfen :

Iglulik, Nunavut, Kanada

Breite: 69-22N, Länge: 081-49W, Höhe: 51 m

Beobachtung

Neuester Wetterbericht von vor 51 Minuten, um 18:00 UTC
Wind 14 kt aus West
Temperatur -19°C
Luftfeuchtigkeit 84%
Luftdruck 1019 hPa
Sichtweite: 24.1 km
Geschlossene Wolkendecke in der Höhe von 1700 ft

METAR: CYGT 121800Z 27014KT 15SM OVC017 M19/M21 A3008 RMK SC8 SLP197

Zeit: 13:51 (18:51 UTC)

Prognose

Neuester Wetterbericht von vor 13 Minuten, um 18:38 UTC
Gültige Prognose vom 12 um 19 UTC bis 12 um 22 UTC
Wind 12 kt aus West
Sichtweite: 10 km
Geschlossene Wolkendecke in der Höhe von 1500 ft
Zeitweise
vom 12 um 20 UTC bis 12 um 22 UTC
Aufgelockert bewölkt in der Höhe von 1500 ft

TAF: CYGT 121838Z 1219/1222 28012KT P6SM OVC015 TEMPO 1220/1222 SCT015 RMK NXT FCST WILL BE ISSUED AT 131245Z

Wetterbeobachtungen und Prognosen von mehr als 4000 Flughäfen (METAR und TAF Bericht).

Die verfügbaren Stationen werden durch gelbe und rote Markierungen auf der Karte dargestellt.

Führen Sie die Maus auf sie, um den Namen der Station zu sehen.

Darauf klicken, um die Beobachtung von Wetterbeobachtungen und Prognosen zu sehen.

Um die Karte zu ändern : klicken Sie auf den grünen Tasten mit einem schwarzen Kreuz Zum Vergrößern, auf den grünen Button mit einem Gedankenstrich zu verkleinern, oder auf die grünen Pfeile für benachbarte Karten.


METAR-TAF: